Wetterdaten: Woche 04.05.09 - 10.05.09 (KW19)
Datum Zeit Temperatur Luftfeuchte Luftdruck Niederschlag Wind Richtung Sonnenschein Solar Taupunkt Windchill Windben
04.05.2009 00:00 11.4 C 90 % 1022.4 hPa 0.0 l/m 1.0 km/h (0 Bft) S-SW 0.00 h 0 W/m 9.7 C 11.4 C 2.8 km/h (1 Bft)
04.05.2009 01:00 11.5 C 92 % 1022.4 hPa 0.0 l/m 1.5 km/h (1 Bft) W-NW 0.00 h 0 W/m 10.2 C 11.5 C 3.0 km/h (1 Bft)
04.05.2009 02:00 11.0 C 93 % 1022.3 hPa 0.4 l/m 0.9 km/h (0 Bft) W-NW 0.00 h 0 W/m 9.9 C 11.0 C 2.3 km/h (1 Bft)
04.05.2009 03:00 10.1 C 92 % 1022.7 hPa 1.4 l/m 0.6 km/h (0 Bft) SW 0.00 h 0 W/m 8.9 C 10.1 C 1.8 km/h (1 Bft)
04.05.2009 04:00 9.8 C 93 % 1022.5 hPa 1.0 l/m 0.1 km/h (0 Bft) N 0.00 h 0 W/m 8.7 C 9.8 C 0.3 km/h (0 Bft)
04.05.2009 05:00 9.6 C 93 % 1022.3 hPa 0.8 l/m 0.8 km/h (0 Bft) O-SO 0.00 h 0 W/m 8.6 C 9.6 C 1.3 km/h (1 Bft)
04.05.2009 06:00 9.5 C 95 % 1022.3 hPa 0.4 l/m 0.1 km/h (0 Bft) O-SO 0.00 h 10 W/m 8.7 C 9.5 C 0.4 km/h (0 Bft)
04.05.2009 07:00 9.5 C 96 % 1022.7 hPa 1.0 l/m 0.0 km/h (0 Bft) N 0.00 h 13 W/m 8.9 C 9.5 C 0.1 km/h (0 Bft)
04.05.2009 08:00 9.8 C 97 % 1023.0 hPa 1.8 l/m 0.0 km/h (0 Bft) N 0.00 h 59 W/m 9.3 C 9.8 C 0.1 km/h (0 Bft)
04.05.2009 09:00 10.0 C 96 % 1023.1 hPa 0.6 l/m 2.3 km/h (1 Bft) O-SO 0.00 h 66 W/m 9.4 C 9.8 C 4.8 km/h (1 Bft)
04.05.2009 10:00 8.8 C 93 % 1023.8 hPa 1.2 l/m 2.4 km/h (1 Bft) N-NO 0.00 h 81 W/m 7.7 C 8.7 C 5.3 km/h (1 Bft)
04.05.2009 11:00 8.8 C 93 % 1024.3 hPa 1.6 l/m 3.2 km/h (1 Bft) O 0.00 h 177 W/m 7.7 C 8.7 C 6.8 km/h (2 Bft)
04.05.2009 12:00 9.4 C 91 % 1024.2 hPa 0.2 l/m 1.2 km/h (1 Bft) O-SO 0.05 h 294 W/m 8.1 C 9.4 C 3.1 km/h (1 Bft)
04.05.2009 13:00 10.6 C 87 % 1023.7 hPa 0.0 l/m 1.3 km/h (1 Bft) O-SO 0.00 h 243 W/m 8.6 C 10.6 C 3.0 km/h (1 Bft)
04.05.2009 14:00 10.9 C 82 % 1023.6 hPa 0.0 l/m 0.6 km/h (0 Bft) O-NO 0.00 h 212 W/m 8.0 C 10.9 C 1.7 km/h (1 Bft)
04.05.2009 15:00 11.6 C 79 % 1023.5 hPa 0.0 l/m 1.9 km/h (1 Bft) O-SO 0.43 h 381 W/m 8.1 C 11.6 C 4.4 km/h (1 Bft)
04.05.2009 16:00 12.5 C 75 % 1023.0 hPa 0.0 l/m 2.4 km/h (1 Bft) O-SO 0.32 h 389 W/m 8.1 C 12.5 C 4.9 km/h (1 Bft)
04.05.2009 17:00 12.8 C 72 % 1022.8 hPa 0.0 l/m 2.6 km/h (1 Bft) S 0.55 h 336 W/m 7.9 C 12.8 C 5.2 km/h (1 Bft)
04.05.2009 18:00 13.0 C 69 % 1022.7 hPa 0.0 l/m 2.0 km/h (1 Bft) S 0.10 h 119 W/m 7.5 C 13.0 C 4.7 km/h (1 Bft)
04.05.2009 19:00 12.2 C 71 % 1022.9 hPa 0.0 l/m 2.2 km/h (1 Bft) S-SO 0.60 h 115 W/m 7.2 C 12.2 C 5.3 km/h (1 Bft)
04.05.2009 20:00 10.6 C 75 % 1023.4 hPa 0.0 l/m 3.1 km/h (1 Bft) SO 0.00 h 21 W/m 6.4 C 10.5 C 4.5 km/h (1 Bft)
04.05.2009 21:00 8.8 C 80 % 1024.2 hPa 0.0 l/m 3.0 km/h (1 Bft) O-SO 0.00 h 0 W/m 5.6 C 8.7 C 3.9 km/h (1 Bft)
04.05.2009 22:00 7.7 C 84 % 1024.8 hPa 0.0 l/m 1.6 km/h (1 Bft) O 0.00 h 0 W/m 5.2 C 7.7 C 2.8 km/h (1 Bft)
04.05.2009 23:00 6.6 C 88 % 1025.0 hPa 0.0 l/m 0.6 km/h (0 Bft) O 0.00 h 0 W/m 4.8 C 6.6 C 1.4 km/h (1 Bft)
05.05.2009 00:00 5.5 C 90 % 1025.1 hPa 0.0 l/m 0.2 km/h (0 Bft) O 0.00 h 0 W/m 4.0 C 5.5 C 0.5 km/h (0 Bft)
05.05.2009 01:00 4.8 C 92 % 1025.1 hPa 0.0 l/m 1.5 km/h (1 Bft) O 0.00 h 0 W/m 3.6 C 4.8 C 2.4 km/h (1 Bft)
05.05.2009 02:00 4.1 C 93 % 1024.7 hPa 0.0 l/m 0.3 km/h (0 Bft) O 0.00 h 0 W/m 3.1 C 4.1 C 1.0 km/h (0 Bft)
05.05.2009 03:00 3.3 C 94 % 1024.4 hPa 0.0 l/m 1.3 km/h (1 Bft) NO 0.00 h 0 W/m 2.3 C 3.2 C 2.2 km/h (1 Bft)
05.05.2009 04:00 2.8 C 95 % 1024.5 hPa 0.0 l/m 0.5 km/h (0 Bft) O 0.00 h 0 W/m 2.1 C 2.8 C 1.3 km/h (1 Bft)
05.05.2009 05:00 2.3 C 95 % 1024.4 hPa 0.0 l/m 0.4 km/h (0 Bft) O 0.00 h 0 W/m 1.7 C 2.3 C 1.1 km/h (1 Bft)
05.05.2009 06:00 2.2 C 96 % 1024.8 hPa 0.0 l/m 0.5 km/h (0 Bft) O 0.03 h 30 W/m 1.6 C 2.2 C 1.1 km/h (1 Bft)
05.05.2009 07:00 3.0 C 97 % 1025.5 hPa 0.0 l/m 0.2 km/h (0 Bft) O 0.00 h 78 W/m 2.6 C 3.0 C 0.6 km/h (0 Bft)
05.05.2009 08:00 4.0 C 97 % 1025.8 hPa 0.0 l/m 0.3 km/h (0 Bft) O 0.00 h 115 W/m 3.5 C 4.0 C 0.8 km/h (0 Bft)
05.05.2009 09:00 4.8 C 97 % 1026.2 hPa 0.0 l/m 0.5 km/h (0 Bft) O 0.00 h 134 W/m 4.4 C 4.8 C 1.6 km/h (1 Bft)
05.05.2009 10:00 6.5 C 96 % 1026.1 hPa 0.0 l/m 1.1 km/h (1 Bft) O 0.00 h 237 W/m 5.9 C 6.5 C 2.8 km/h (1 Bft)
05.05.2009 11:00 8.7 C 90 % 1026.0 hPa 0.0 l/m 1.3 km/h (1 Bft) S-SO 0.00 h 264 W/m 7.2 C 8.7 C 3.5 km/h (1 Bft)
05.05.2009 12:00 10.7 C 81 % 1025.6 hPa 0.0 l/m 2.1 km/h (1 Bft) S 0.00 h 400 W/m 7.5 C 10.7 C 4.1 km/h (1 Bft)
05.05.2009 13:00 12.9 C 58 % 1025.0 hPa 0.0 l/m 8.9 km/h (2 Bft) W 0.77 h 580 W/m 4.8 C 12.9 C 14.8 km/h (3 Bft)
05.05.2009 14:00 13.3 C 53 % 1024.8 hPa 0.0 l/m 13.2 km/h (3 Bft) W 0.55 h 463 W/m 4.0 C 13.3 C 21.1 km/h (4 Bft)
05.05.2009 15:00 14.1 C 52 % 1024.6 hPa 0.2 l/m 12.7 km/h (3 Bft) W 0.43 h 443 W/m 4.5 C 14.1 C 20.5 km/h (4 Bft)
05.05.2009 16:00 14.0 C 53 % 1024.4 hPa 0.0 l/m 12.8 km/h (3 Bft) W 0.68 h 391 W/m 4.6 C 14.0 C 19.6 km/h (3 Bft)
05.05.2009 17:00 14.6 C 52 % 1024.3 hPa 0.0 l/m 10.7 km/h (2 Bft) W 0.65 h 341 W/m 4.9 C 14.6 C 16.9 km/h (3 Bft)
05.05.2009 18:00 14.4 C 53 % 1024.3 hPa 0.0 l/m 9.2 km/h (2 Bft) W 0.55 h 211 W/m 5.0 C 14.4 C 15.2 km/h (3 Bft)
05.05.2009 19:00 13.5 C 57 % 1024.3 hPa 0.0 l/m 5.5 km/h (1 Bft) W-NW 0.00 h 48 W/m 5.2 C 13.5 C 9.1 km/h (2 Bft)
05.05.2009 20:00 12.7 C 60 % 1024.3 hPa 0.0 l/m 4.5 km/h (1 Bft) W 0.00 h 13 W/m 5.2 C 12.7 C 7.6 km/h (2 Bft)
05.05.2009 21:00 12.3 C 62 % 1024.2 hPa 0.0 l/m 8.9 km/h (2 Bft) W 0.00 h 0 W/m 5.3 C 12.3 C 14.0 km/h (3 Bft)
05.05.2009 22:00 11.9 C 65 % 1024.3 hPa 0.0 l/m 5.3 km/h (1 Bft) W 0.00 h 0 W/m 5.6 C 11.9 C 8.6 km/h (2 Bft)
05.05.2009 23:00 11.6 C 66 % 1024.1 hPa 0.0 l/m 6.5 km/h (2 Bft) W-NW 0.00 h 0 W/m 5.6 C 11.6 C 10.1 km/h (2 Bft)
06.05.2009 00:00 11.5 C 67 % 1023.8 hPa 0.0 l/m 6.8 km/h (2 Bft) W 0.00 h 0 W/m 5.5 C 11.5 C 10.1 km/h (2 Bft)
06.05.2009 01:00 11.3 C 69 % 1023.4 hPa 0.0 l/m 6.6 km/h (2 Bft) W 0.00 h 0 W/m 5.8 C 11.3 C 10.7 km/h (2 Bft)
06.05.2009 02:00 11.1 C 73 % 1022.8 hPa 0.0 l/m 7.7 km/h (2 Bft) W 0.00 h 0 W/m 6.4 C 11.1 C 13.6 km/h (3 Bft)
06.05.2009 03:00 10.9 C 75 % 1022.6 hPa 0.0 l/m 4.6 km/h (1 Bft) W 0.00 h 0 W/m 6.5 C 10.9 C 8.1 km/h (2 Bft)
06.05.2009 04:00 10.7 C 74 % 1022.4 hPa 0.0 l/m 2.3 km/h (1 Bft) W-SW 0.00 h 0 W/m 6.4 C 10.7 C 5.0 km/h (1 Bft)
06.05.2009 05:00 10.7 C 74 % 1022.2 hPa 0.0 l/m 1.6 km/h (1 Bft) S 0.00 h 0 W/m 6.3 C 10.7 C 4.2 km/h (1 Bft)
06.05.2009 06:00 10.4 C 75 % 1022.1 hPa 0.0 l/m 2.5 km/h (1 Bft) S 0.00 h 13 W/m 6.2 C 10.4 C 5.5 km/h (1 Bft)
06.05.2009 07:00 10.4 C 76 % 1022.2 hPa 0.0 l/m 2.2 km/h (1 Bft) S-SO 0.00 h 35 W/m 6.4 C 10.4 C 5.4 km/h (1 Bft)
06.05.2009 08:00 10.8 C 75 % 1022.4 hPa 0.0 l/m 5.2 km/h (1 Bft) S 0.00 h 61 W/m 6.5 C 10.8 C 10.7 km/h (2 Bft)
06.05.2009 09:00 11.0 C 75 % 1022.2 hPa 0.0 l/m 7.4 km/h (2 Bft) S-SO 0.00 h 78 W/m 6.7 C 11.0 C 13.7 km/h (3 Bft)
06.05.2009 10:00 12.2 C 74 % 1022.0 hPa 0.0 l/m 4.9 km/h (1 Bft) S 0.00 h 184 W/m 7.7 C 12.2 C 9.9 km/h (2 Bft)
06.05.2009 11:00 13.6 C 73 % 1021.9 hPa 0.0 l/m 2.9 km/h (1 Bft) W 0.00 h 212 W/m 8.8 C 13.6 C 5.7 km/h (1 Bft)
06.05.2009 12:00 15.9 C 67 % 1021.5 hPa 0.0 l/m 8.7 km/h (2 Bft) W 0.83 h 611 W/m 9.9 C 15.9 C 13.8 km/h (3 Bft)
06.05.2009 13:00 17.5 C 62 % 1021.0 hPa 0.0 l/m 15.3 km/h (3 Bft) W 0.87 h 756 W/m 10.2 C 17.5 C 23.7 km/h (4 Bft)
06.05.2009 14:00 16.3 C 65 % 1021.0 hPa 0.0 l/m 14.4 km/h (3 Bft) W 0.00 h 405 W/m 9.8 C 16.3 C 23.2 km/h (4 Bft)
06.05.2009 15:00 16.8 C 61 % 1020.2 hPa 0.0 l/m 19.0 km/h (3 Bft) W-NW 0.05 h 373 W/m 9.3 C 16.8 C 29.1 km/h (5 Bft)
06.05.2009 16:00 17.4 C 59 % 1019.6 hPa 0.0 l/m 16.1 km/h (3 Bft) W 0.70 h 395 W/m 9.2 C 17.4 C 24.5 km/h (4 Bft)
06.05.2009 17:00 17.8 C 54 % 1019.5 hPa 0.0 l/m 11.5 km/h (2 Bft) W-NW 0.48 h 306 W/m 8.2 C 17.8 C 18.3 km/h (3 Bft)
06.05.2009 18:00 19.0 C 45 % 1019.2 hPa 0.0 l/m 13.5 km/h (3 Bft) W-NW 1.00 h 355 W/m 6.7 C 19.0 C 21.0 km/h (4 Bft)
06.05.2009 19:00 18.1 C 48 % 1019.3 hPa 0.0 l/m 11.4 km/h (2 Bft) W-NW 0.93 h 140 W/m 6.9 C 18.1 C 18.2 km/h (3 Bft)
06.05.2009 20:00 16.6 C 54 % 1019.6 hPa 0.0 l/m 6.8 km/h (2 Bft) W-NW 0.30 h 25 W/m 7.3 C 16.6 C 10.6 km/h (2 Bft)
06.05.2009 21:00 14.8 C 61 % 1019.9 hPa 0.0 l/m 1.2 km/h (1 Bft) N-NW 0.00 h 0 W/m 7.4 C 14.8 C 3.1 km/h (1 Bft)
06.05.2009 22:00 13.0 C 69 % 1020.3 hPa 0.0 l/m 2.5 km/h (1 Bft) O 0.00 h 0 W/m 7.4 C 13.0 C 4.2 km/h (1 Bft)
06.05.2009 23:00 10.8 C 77 % 1020.5 hPa 0.0 l/m 3.0 km/h (1 Bft) O 0.00 h 0 W/m 7.0 C 10.8 C 4.2 km/h (1 Bft)
07.05.2009 00:00 9.5 C 82 % 1020.3 hPa 0.0 l/m 0.7 km/h (0 Bft) SO 0.00 h 0 W/m 6.6 C 9.5 C 1.6 km/h (1 Bft)
07.05.2009 01:00 8.3 C 86 % 1020.5 hPa 0.0 l/m 0.6 km/h (0 Bft) SO 0.00 h 0 W/m 6.2 C 8.3 C 1.4 km/h (1 Bft)
07.05.2009 02:00 7.5 C 89 % 1020.4 hPa 0.0 l/m 0.7 km/h (0 Bft) SO 0.00 h 0 W/m 5.8 C 7.5 C 1.3 km/h (1 Bft)
07.05.2009 03:00 6.7 C 91 % 1020.4 hPa 0.0 l/m 0.2 km/h (0 Bft) SO 0.00 h 0 W/m 5.4 C 6.7 C 0.5 km/h (0 Bft)
07.05.2009 04:00 6.1 C 93 % 1020.0 hPa 0.0 l/m 0.3 km/h (0 Bft) SO 0.00 h 0 W/m 4.9 C 6.1 C 0.6 km/h (0 Bft)
07.05.2009 05:00 5.7 C 94 % 1020.0 hPa 0.0 l/m 0.9 km/h (0 Bft) SO 0.00 h 0 W/m 4.9 C 5.7 C 2.1 km/h (1 Bft)
07.05.2009 06:00 5.3 C 95 % 1020.3 hPa 0.0 l/m 0.3 km/h (0 Bft) SO 0.03 h 20 W/m 4.5 C 5.3 C 0.7 km/h (0 Bft)
07.05.2009 07:00 5.6 C 96 % 1020.6 hPa 0.0 l/m 0.1 km/h (0 Bft) SO 0.52 h 116 W/m 5.0 C 5.6 C 0.2 km/h (0 Bft)
07.05.2009 08:00 9.6 C 96 % 1020.4 hPa 0.0 l/m 0.2 km/h (0 Bft) SO 1.00 h 309 W/m 8.9 C 9.6 C 1.1 km/h (1 Bft)
07.05.2009 09:00 13.1 C 79 % 1020.1 hPa 0.0 l/m 0.4 km/h (0 Bft) S-SW 1.00 h 489 W/m 9.5 C 13.1 C 1.6 km/h (1 Bft)
07.05.2009 10:00 15.6 C 69 % 1019.7 hPa 0.0 l/m 1.1 km/h (1 Bft) W-NW 1.00 h 649 W/m 10.0 C 15.6 C 2.9 km/h (1 Bft)
07.05.2009 11:00 18.1 C 60 % 1019.1 hPa 0.0 l/m 2.9 km/h (1 Bft) S-SO 1.00 h 774 W/m 10.1 C 18.1 C 5.5 km/h (1 Bft)
07.05.2009 12:00 19.3 C 56 % 1018.6 hPa 0.0 l/m 3.4 km/h (1 Bft) SO 1.00 h 853 W/m 10.2 C 19.3 C 5.9 km/h (2 Bft)
07.05.2009 13:00 21.2 C 46 % 1017.7 hPa 0.0 l/m 3.0 km/h (1 Bft) O-SO 1.00 h 881 W/m 9.0 C 21.2 C 5.7 km/h (1 Bft)
07.05.2009 14:00 23.4 C 25 % 1017.1 hPa 0.0 l/m 7.9 km/h (2 Bft) W 1.00 h 856 W/m 2.1 C 23.4 C 12.8 km/h (3 Bft)
07.05.2009 15:00 24.8 C 28 % 1016.4 hPa 0.0 l/m 4.6 km/h (1 Bft) W 1.00 h 770 W/m 4.8 C 24.8 C 7.8 km/h (2 Bft)
07.05.2009 16:00 25.6 C 28 % 1016.0 hPa 0.0 l/m 3.3 km/h (1 Bft) W-NW 1.00 h 649 W/m 5.7 C 25.6 C 5.8 km/h (2 Bft)
07.05.2009 17:00 24.5 C 32 % 1015.6 hPa 0.0 l/m 2.5 km/h (1 Bft) SO 1.00 h 494 W/m 6.6 C 24.5 C 4.4 km/h (1 Bft)
07.05.2009 18:00 25.0 C 31 % 1015.2 hPa 0.0 l/m 2.2 km/h (1 Bft) W-NW 1.00 h 319 W/m 6.9 C 25.0 C 3.8 km/h (1 Bft)
07.05.2009 19:00 23.6 C 36 % 1014.9 hPa 0.0 l/m 0.6 km/h (0 Bft) W-NW 0.60 h 124 W/m 7.5 C 23.6 C 1.7 km/h (1 Bft)
07.05.2009 20:00 20.6 C 51 % 1014.5 hPa 0.0 l/m 2.9 km/h (1 Bft) O-SO 0.22 h 27 W/m 10.0 C 20.6 C 3.9 km/h (1 Bft)
07.05.2009 21:00 17.0 C 61 % 1015.0 hPa 0.0 l/m 3.8 km/h (1 Bft) O-SO 0.00 h 0 W/m 9.3 C 17.0 C 5.1 km/h (1 Bft)
07.05.2009 22:00 14.5 C 67 % 1015.1 hPa 0.0 l/m 1.9 km/h (1 Bft) SO 0.00 h 0 W/m 8.4 C 14.5 C 3.0 km/h (1 Bft)
07.05.2009 23:00 13.1 C 70 % 1015.0 hPa 0.0 l/m 1.3 km/h (1 Bft) SO 0.00 h 0 W/m 7.7 C 13.1 C 2.1 km/h (1 Bft)
08.05.2009 00:00 12.1 C 74 % 1014.9 hPa 0.0 l/m 1.0 km/h (0 Bft) SO 0.00 h 0 W/m 7.6 C 12.1 C 1.7 km/h (1 Bft)
08.05.2009 01:00 11.3 C 79 % 1015.0 hPa 0.0 l/m 2.6 km/h (1 Bft) O-SO 0.00 h 0 W/m 7.9 C 11.3 C 3.7 km/h (1 Bft)
08.05.2009 02:00 11.4 C 82 % 1014.9 hPa 0.0 l/m 2.5 km/h (1 Bft) O-SO 0.00 h 0 W/m 8.4 C 11.4 C 3.9 km/h (1 Bft)
08.05.2009 03:00 11.7 C 81 % 1015.0 hPa 0.0 l/m 1.0 km/h (0 Bft) NO 0.00 h 0 W/m 8.6 C 11.7 C 2.2 km/h (1 Bft)
08.05.2009 04:00 11.5 C 83 % 1014.4 hPa 0.0 l/m 1.0 km/h (0 Bft) O-SO 0.00 h 0 W/m 8.7 C 11.5 C 1.8 km/h (1 Bft)
08.05.2009 05:00 11.2 C 86 % 1014.6 hPa 0.0 l/m 1.6 km/h (1 Bft) W-NW 0.00 h 0 W/m 9.0 C 11.2 C 3.3 km/h (1 Bft)
08.05.2009 06:00 11.2 C 88 % 1015.1 hPa 0.4 l/m 3.5 km/h (1 Bft) O-SO 0.00 h 13 W/m 9.4 C 11.2 C 6.0 km/h (2 Bft)
08.05.2009 07:00 11.7 C 91 % 1015.3 hPa 0.2 l/m 1.4 km/h (1 Bft) W-NW 0.00 h 53 W/m 10.3 C 11.7 C 2.5 km/h (1 Bft)
08.05.2009 08:00 12.6 C 93 % 1016.0 hPa 0.0 l/m 0.3 km/h (0 Bft) NW 0.33 h 212 W/m 11.4 C 12.6 C 1.0 km/h (0 Bft)
08.05.2009 09:00 15.4 C 84 % 1016.0 hPa 0.0 l/m 2.2 km/h (1 Bft) NW 0.85 h 456 W/m 12.6 C 15.4 C 4.3 km/h (1 Bft)
08.05.2009 10:00 17.6 C 74 % 1015.6 hPa 0.0 l/m 2.0 km/h (1 Bft) W-NW 0.93 h 556 W/m 12.9 C 17.6 C 3.9 km/h (1 Bft)
08.05.2009 11:00 20.7 C 63 % 1015.2 hPa 0.0 l/m 2.1 km/h (1 Bft) W-NW 1.00 h 708 W/m 13.3 C 20.7 C 4.5 km/h (1 Bft)
08.05.2009 12:00 22.1 C 57 % 1014.7 hPa 0.0 l/m 2.4 km/h (1 Bft) O-SO 1.00 h 702 W/m 13.0 C 22.1 C 4.6 km/h (1 Bft)
08.05.2009 13:00 23.0 C 53 % 1014.1 hPa 0.0 l/m 3.3 km/h (1 Bft) N 0.60 h 539 W/m 13.0 C 23.0 C 5.8 km/h (2 Bft)
08.05.2009 14:00 20.8 C 60 % 1014.3 hPa 0.4 l/m 9.5 km/h (2 Bft) W-NW 0.00 h 79 W/m 12.7 C 20.8 C 15.0 km/h (3 Bft)
08.05.2009 15:00 17.1 C 80 % 1015.0 hPa 1.2 l/m 9.1 km/h (2 Bft) W-NW 0.00 h 85 W/m 13.5 C 17.1 C 14.5 km/h (3 Bft)
08.05.2009 16:00 16.7 C 88 % 1015.2 hPa 0.8 l/m 3.4 km/h (1 Bft) W 0.02 h 116 W/m 14.8 C 16.7 C 6.4 km/h (2 Bft)
08.05.2009 17:00 16.2 C 88 % 1015.8 hPa 0.0 l/m 4.8 km/h (1 Bft) W 0.00 h 163 W/m 14.3 C 16.2 C 8.0 km/h (2 Bft)
08.05.2009 18:00 17.3 C 83 % 1016.4 hPa 0.0 l/m 1.1 km/h (1 Bft) SO 0.00 h 74 W/m 14.3 C 17.3 C 2.2 km/h (1 Bft)
08.05.2009 19:00 17.0 C 86 % 1016.8 hPa 1.2 l/m 1.2 km/h (1 Bft) O 0.00 h 17 W/m 14.5 C 17.0 C 2.5 km/h (1 Bft)
08.05.2009 20:00 16.1 C 91 % 1017.5 hPa 2.2 l/m 2.7 km/h (1 Bft) O-SO 0.00 h 0 W/m 14.7 C 16.1 C 5.0 km/h (1 Bft)
08.05.2009 21:00 14.9 C 93 % 1018.5 hPa 1.2 l/m 1.8 km/h (1 Bft) O-SO 0.00 h 0 W/m 13.8 C 14.9 C 3.6 km/h (1 Bft)
08.05.2009 22:00 14.5 C 95 % 1019.0 hPa 0.0 l/m 2.4 km/h (1 Bft) S-SO 0.00 h 0 W/m 13.7 C 14.5 C 5.0 km/h (1 Bft)
08.05.2009 23:00 14.3 C 95 % 1019.3 hPa 0.0 l/m 1.6 km/h (1 Bft) SO 0.00 h 0 W/m 13.5 C 14.3 C 3.4 km/h (1 Bft)
09.05.2009 00:00 13.9 C 94 % 1019.5 hPa 0.0 l/m 0.7 km/h (0 Bft) S-SW 0.00 h 0 W/m 12.9 C 13.9 C 1.9 km/h (1 Bft)
09.05.2009 01:00 13.5 C 95 % 1019.7 hPa 0.2 l/m 1.2 km/h (1 Bft) W-NW 0.00 h 0 W/m 12.6 C 13.5 C 2.0 km/h (1 Bft)
09.05.2009 02:00 13.2 C 95 % 1019.7 hPa 0.0 l/m 0.9 km/h (0 Bft) O-SO 0.00 h 0 W/m 12.5 C 13.2 C 1.6 km/h (1 Bft)
09.05.2009 03:00 12.5 C 96 % 1019.5 hPa 0.0 l/m 1.1 km/h (1 Bft) O-SO 0.00 h 0 W/m 11.8 C 12.5 C 2.1 km/h (1 Bft)
09.05.2009 04:00 11.9 C 97 % 1019.5 hPa 0.0 l/m 2.6 km/h (1 Bft) O-SO 0.00 h 0 W/m 11.4 C 11.9 C 3.9 km/h (1 Bft)
09.05.2009 05:00 11.8 C 97 % 1019.2 hPa 0.0 l/m 0.1 km/h (0 Bft) O-SO 0.00 h 0 W/m 11.4 C 11.8 C 0.3 km/h (0 Bft)
09.05.2009 06:00 12.0 C 98 % 1019.1 hPa 0.0 l/m 0.0 km/h (0 Bft) O-SO 0.00 h 16 W/m 11.7 C 12.0 C 0.2 km/h (0 Bft)
09.05.2009 07:00 12.7 C 99 % 1019.1 hPa 0.0 l/m 0.1 km/h (0 Bft) O-SO 0.00 h 52 W/m 12.4 C 12.7 C 0.6 km/h (0 Bft)
09.05.2009 08:00 13.5 C 99 % 1018.9 hPa 0.0 l/m 0.8 km/h (0 Bft) O-SO 0.00 h 97 W/m 13.3 C 13.5 C 2.3 km/h (1 Bft)
09.05.2009 09:00 14.2 C 99 % 1018.6 hPa 0.0 l/m 0.5 km/h (0 Bft) N-NW 0.00 h 162 W/m 14.0 C 14.2 C 1.5 km/h (1 Bft)
09.05.2009 10:00 15.5 C 95 % 1018.0 hPa 0.0 l/m 0.8 km/h (0 Bft) O-SO 0.03 h 294 W/m 14.6 C 15.5 C 2.7 km/h (1 Bft)
09.05.2009 11:00 17.6 C 84 % 1017.3 hPa 0.0 l/m 3.0 km/h (1 Bft) N 0.55 h 548 W/m 14.9 C 17.6 C 6.1 km/h (2 Bft)
09.05.2009 12:00 19.9 C 76 % 1016.6 hPa 0.0 l/m 1.9 km/h (1 Bft) N-NW 0.97 h 811 W/m 15.5 C 19.9 C 4.4 km/h (1 Bft)
09.05.2009 13:00 21.6 C 68 % 1015.5 hPa 0.0 l/m 4.1 km/h (1 Bft) O-SO 1.00 h 763 W/m 15.3 C 21.6 C 7.5 km/h (2 Bft)
09.05.2009 14:00 22.0 C 61 % 1014.7 hPa 0.0 l/m 7.3 km/h (2 Bft) O-SO 0.35 h 484 W/m 14.2 C 22.0 C 11.1 km/h (2 Bft)
09.05.2009 15:00 22.7 C 58 % 1014.0 hPa 0.0 l/m 6.2 km/h (2 Bft) O-SO 0.77 h 557 W/m 14.1 C 22.7 C 9.9 km/h (2 Bft)
09.05.2009 16:00 23.2 C 58 % 1013.2 hPa 0.0 l/m 3.5 km/h (1 Bft) O-SO 0.23 h 346 W/m 14.4 C 23.2 C 6.2 km/h (2 Bft)
09.05.2009 17:00 23.1 C 57 % 1013.2 hPa 0.0 l/m 3.4 km/h (1 Bft) N-NW 0.08 h 124 W/m 14.1 C 23.1 C 6.0 km/h (2 Bft)
09.05.2009 18:00 18.3 C 73 % 1014.6 hPa 1.8 l/m 11.6 km/h (2 Bft) S-SO 0.00 h 8 W/m 13.4 C 18.3 C 18.5 km/h (3 Bft)
09.05.2009 19:00 15.3 C 83 % 1015.8 hPa 0.0 l/m 5.2 km/h (1 Bft) W-NW 0.00 h 33 W/m 12.5 C 15.3 C 8.7 km/h (2 Bft)
09.05.2009 20:00 15.0 C 86 % 1016.0 hPa 0.0 l/m 3.9 km/h (1 Bft) O-SO 0.15 h 21 W/m 12.7 C 15.0 C 6.0 km/h (2 Bft)
09.05.2009 21:00 13.9 C 89 % 1016.0 hPa 0.0 l/m 2.7 km/h (1 Bft) SO 0.00 h 0 W/m 12.1 C 13.9 C 4.1 km/h (1 Bft)
09.05.2009 22:00 12.9 C 92 % 1016.3 hPa 0.0 l/m 3.0 km/h (1 Bft) O-SO 0.00 h 0 W/m 11.6 C 12.9 C 4.2 km/h (1 Bft)
09.05.2009 23:00 12.0 C 94 % 1016.8 hPa 0.0 l/m 1.8 km/h (1 Bft) O 0.00 h 0 W/m 11.1 C 12.0 C 2.6 km/h (1 Bft)
10.05.2009 00:00 11.5 C 95 % 1016.9 hPa 0.0 l/m 2.7 km/h (1 Bft) O 0.00 h 0 W/m 10.7 C 11.5 C 4.2 km/h (1 Bft)
10.05.2009 01:00 10.9 C 97 % 1017.5 hPa 0.0 l/m 1.1 km/h (1 Bft) O-SO 0.00 h 0 W/m 10.4 C 10.9 C 2.1 km/h (1 Bft)
10.05.2009 02:00 10.9 C 97 % 1017.6 hPa 0.0 l/m 0.6 km/h (0 Bft) O-SO 0.00 h 0 W/m 10.4 C 10.9 C 1.1 km/h (1 Bft)
10.05.2009 03:00 10.7 C 97 % 1017.7 hPa 0.0 l/m 1.1 km/h (1 Bft) O-SO 0.00 h 0 W/m 10.3 C 10.7 C 2.3 km/h (1 Bft)
10.05.2009 04:00 10.5 C 98 % 1017.6 hPa 0.0 l/m 0.4 km/h (0 Bft) O-SO 0.00 h 0 W/m 10.2 C 10.5 C 1.0 km/h (0 Bft)
10.05.2009 05:00 10.8 C 98 % 1017.6 hPa 0.0 l/m 0.5 km/h (0 Bft) O-SO 0.00 h 0 W/m 10.5 C 10.8 C 1.1 km/h (1 Bft)
10.05.2009 06:00 10.6 C 99 % 1017.9 hPa 0.0 l/m 1.0 km/h (0 Bft) O-SO 0.00 h 20 W/m 10.4 C 10.6 C 1.9 km/h (1 Bft)
10.05.2009 07:00 11.0 C 99 % 1018.0 hPa 0.2 l/m 0.3 km/h (0 Bft) O-SO 0.00 h 61 W/m 10.9 C 11.0 C 1.3 km/h (1 Bft)
10.05.2009 08:00 12.0 C 100 % 1018.0 hPa 0.0 l/m 0.5 km/h (0 Bft) O-SO 0.23 h 181 W/m 12.0 C 12.0 C 1.8 km/h (1 Bft)
10.05.2009 09:00 14.2 C 95 % 1017.8 hPa 0.0 l/m 0.9 km/h (0 Bft) SW 0.98 h 465 W/m 13.4 C 14.2 C 2.2 km/h (1 Bft)
10.05.2009 10:00 17.9 C 80 % 1017.4 hPa 0.0 l/m 1.6 km/h (1 Bft) W-NW 1.00 h 636 W/m 14.5 C 17.9 C 3.7 km/h (1 Bft)
10.05.2009 11:00 20.6 C 66 % 1017.2 hPa 0.0 l/m 2.1 km/h (1 Bft) W 1.00 h 765 W/m 14.0 C 20.6 C 4.1 km/h (1 Bft)
10.05.2009 12:00 22.3 C 57 % 1017.0 hPa 0.0 l/m 2.2 km/h (1 Bft) W-NW 1.00 h 810 W/m 13.5 C 22.3 C 4.4 km/h (1 Bft)
10.05.2009 13:00 22.9 C 53 % 1016.4 hPa 0.0 l/m 3.2 km/h (1 Bft) W-NW 0.75 h 720 W/m 12.7 C 22.9 C 5.7 km/h (1 Bft)
10.05.2009 14:00 22.5 C 50 % 1016.0 hPa 0.0 l/m 2.9 km/h (1 Bft) O-SO 0.38 h 414 W/m 11.4 C 22.5 C 5.1 km/h (1 Bft)
10.05.2009 15:00 22.6 C 53 % 1015.8 hPa 0.0 l/m 3.9 km/h (1 Bft) O-SO 0.15 h 337 W/m 12.6 C 22.6 C 6.3 km/h (2 Bft)
10.05.2009 16:00 22.5 C 54 % 1015.6 hPa 0.0 l/m 0.9 km/h (0 Bft) O-SO 0.00 h 245 W/m 12.7 C 22.5 C 2.5 km/h (1 Bft)
10.05.2009 17:00 22.5 C 56 % 1015.4 hPa 0.0 l/m 0.8 km/h (0 Bft) O-SO 0.23 h 218 W/m 13.2 C 22.5 C 2.2 km/h (1 Bft)
10.05.2009 18:00 22.3 C 55 % 1014.6 hPa 0.0 l/m 1.9 km/h (1 Bft) O-SO 0.08 h 151 W/m 12.9 C 22.3 C 3.5 km/h (1 Bft)
10.05.2009 19:00 21.3 C 61 % 1014.3 hPa 0.0 l/m 2.0 km/h (1 Bft) O-SO 0.02 h 81 W/m 13.3 C 21.3 C 4.1 km/h (1 Bft)
10.05.2009 20:00 20.0 C 58 % 1014.4 hPa 0.0 l/m 2.3 km/h (1 Bft) O-NO 0.00 h 14 W/m 11.4 C 20.0 C 5.8 km/h (2 Bft)
10.05.2009 21:00 18.9 C 63 % 1015.0 hPa 0.0 l/m 0.1 km/h (0 Bft) O-NO 0.00 h 0 W/m 11.6 C 18.9 C 0.9 km/h (0 Bft)
10.05.2009 22:00 17.7 C 75 % 1015.5 hPa 0.0 l/m 5.1 km/h (1 Bft) W-NW 0.00 h 0 W/m 13.1 C 17.7 C 9.1 km/h (2 Bft)
10.05.2009 23:00 16.6 C 80 % 1015.4 hPa 0.0 l/m 0.8 km/h (0 Bft) W-NW 0.00 h 0 W/m 13.2 C 16.6 C 1.5 km/h (1 Bft)
Min-Datum _ 05.05.09 07.05.09 09.05.09 - 04.05.09 - - - 07.05.09 05.05.09 04.05.09
_ Min-Zeit 06:00 14:39 18:15 - 00:02 - - - 14:39 03:27 00:03
Minimum _ 2.1 C 19 % 1012.8 hPa - 0.0 km/h (0 Bft) - - - -1.3 C 2.1 C 0.0 km/h (0 Bft)
Max-Datum _ 07.05.09 10.05.09 05.05.09 08.05.09 09.05.09 - 04.05.09 05.05.09 09.05.09 07.05.09 06.05.09
_ Max-Zeit 16:49 03:46 08:45 20:58 18:13 - 12:48 15:00 12:33 16:48 15:38
Maximum _ 26.0 C 100 % 1026.2 hPa 2.2 l/m 33.0 km/h
S-SO (5 Bft)
- 0.02 h 1067 W/m 16.5 C 26.0 C 48.7 km/h
W-NW (6 Bft)
Durchschnitt _ 13.7 C 77 % 1019.6 hPa #20.4 l/m 3.2 km/h (1 Bft) O-SO #37:57 h 296 W/m 9.1 C 13.7 C 5.6 km/h (1 Bft)
© Kaiko 2009